sensor_id;sensor_type;location;lat;lon;timestamp;temperature;humidity
39401;DHT22;54391;50.000;7.360;2023-02-22T00:01:05;7.00;31.40
39401;DHT22;54391;50.000;7.360;2023-02-22T00:03:47;7.00;32.00
39401;DHT22;54391;50.000;7.360;2023-02-22T00:06:14;7.00;33.00
39401;DHT22;54391;50.000;7.360;2023-02-22T00:08:42;7.10;34.00
39401;DHT22;54391;50.000;7.360;2023-02-22T00:11:08;7.10;34.20
39401;DHT22;54391;50.000;7.360;2023-02-22T00:13:35;7.20;35.70
39401;DHT22;54391;50.000;7.360;2023-02-22T00:16:04;7.50;35.40
39401;DHT22;54391;50.000;7.360;2023-02-22T00:18:31;7.30;36.60
39401;DHT22;54391;50.000;7.360;2023-02-22T00:20:59;7.30;37.40
39401;DHT22;54391;50.000;7.360;2023-02-22T00:23:26;7.20;37.10
39401;DHT22;54391;50.000;7.360;2023-02-22T00:25:54;7.30;37.70
39401;DHT22;54391;50.000;7.360;2023-02-22T00:28:22;7.40;39.30
39401;DHT22;54391;50.000;7.360;2023-02-22T00:30:49;7.30;39.10
39401;DHT22;54391;50.000;7.360;2023-02-22T00:33:21;7.30;39.20
39401;DHT22;54391;50.000;7.360;2023-02-22T00:35:48;7.40;39.90
39401;DHT22;54391;50.000;7.360;2023-02-22T00:38:15;7.40;40.60
39401;DHT22;54391;50.000;7.360;2023-02-22T00:40:43;7.50;41.30
39401;DHT22;54391;50.000;7.360;2023-02-22T00:43:10;7.50;40.40
39401;DHT22;54391;50.000;7.360;2023-02-22T00:45:39;7.50;41.40
39401;DHT22;54391;50.000;7.360;2023-02-22T00:48:06;7.40;40.40
39401;DHT22;54391;50.000;7.360;2023-02-22T00:50:34;7.40;40.70
39401;DHT22;54391;50.000;7.360;2023-02-22T00:53:02;7.30;40.20
39401;DHT22;54391;50.000;7.360;2023-02-22T00:55:30;7.20;40.40
39401;DHT22;54391;50.000;7.360;2023-02-22T00:57:58;7.10;41.40
39401;DHT22;54391;50.000;7.360;2023-02-22T01:00:29;7.10;41.90
39401;DHT22;54391;50.000;7.360;2023-02-22T01:02:56;7.10;41.90
39401;DHT22;54391;50.000;7.360;2023-02-22T01:05:24;7.10;42.10
39401;DHT22;54391;50.000;7.360;2023-02-22T01:07:53;7.10;40.90
39401;DHT22;54391;50.000;7.360;2023-02-22T01:10:22;7.20;42.00
39401;DHT22;54391;50.000;7.360;2023-02-22T01:12:50;7.20;41.90
39401;DHT22;54391;50.000;7.360;2023-02-22T01:15:19;7.20;42.00
39401;DHT22;54391;50.000;7.360;2023-02-22T01:17:47;7.20;41.40
39401;DHT22;54391;50.000;7.360;2023-02-22T01:20:14;7.20;41.70
39401;DHT22;54391;50.000;7.360;2023-02-22T01:22:43;7.10;41.20
39401;DHT22;54391;50.000;7.360;2023-02-22T01:25:14;7.20;41.50
39401;DHT22;54391;50.000;7.360;2023-02-22T01:27:43;7.10;41.60
39401;DHT22;54391;50.000;7.360;2023-02-22T01:30:10;7.10;41.50
39401;DHT22;54391;50.000;7.360;2023-02-22T01:32:38;7.10;41.20
39401;DHT22;54391;50.000;7.360;2023-02-22T01:35:06;7.10;41.30
39401;DHT22;54391;50.000;7.360;2023-02-22T01:37:34;6.90;41.00
39401;DHT22;54391;50.000;7.360;2023-02-22T01:40:02;6.90;41.10
39401;DHT22;54391;50.000;7.360;2023-02-22T01:42:33;6.90;41.80
39401;DHT22;54391;50.000;7.360;2023-02-22T01:45:29;6.80;42.20
39401;DHT22;54391;50.000;7.360;2023-02-22T01:48:05;6.90;42.20
39401;DHT22;54391;50.000;7.360;2023-02-22T01:50:35;6.90;42.20
39401;DHT22;54391;50.000;7.360;2023-02-22T01:53:04;6.90;41.40
39401;DHT22;54391;50.000;7.360;2023-02-22T01:55:32;6.90;40.80
39401;DHT22;54391;50.000;7.360;2023-02-22T01:58:01;6.90;40.50
39401;DHT22;54391;50.000;7.360;2023-02-22T02:00:28;7.20;39.40
39401;DHT22;54391;50.000;7.360;2023-02-22T02:02:57;7.10;39.30
39401;DHT22;54391;50.000;7.360;2023-02-22T02:05:25;7.20;37.90
39401;DHT22;54391;50.000;7.360;2023-02-22T02:07:55;7.20;37.70
39401;DHT22;54391;50.000;7.360;2023-02-22T02:10:23;7.20;36.50
39401;DHT22;54391;50.000;7.360;2023-02-22T02:12:50;7.20;35.90
39401;DHT22;54391;50.000;7.360;2023-02-22T02:15:24;7.10;35.90
39401;DHT22;54391;50.000;7.360;2023-02-22T02:17:54;7.00;36.10
39401;DHT22;54391;50.000;7.360;2023-02-22T02:20:22;6.90;36.30
39401;DHT22;54391;50.000;7.360;2023-02-22T02:22:53;6.90;36.00
39401;DHT22;54391;50.000;7.360;2023-02-22T02:28:16;6.90;36.20
39401;DHT22;54391;50.000;7.360;2023-02-22T02:31:00;6.80;35.60
39401;DHT22;54391;50.000;7.360;2023-02-22T02:33:33;6.90;35.60
39401;DHT22;54391;50.000;7.360;2023-02-22T02:36:03;6.80;34.70
39401;DHT22;54391;50.000;7.360;2023-02-22T02:38:33;6.90;34.30
39401;DHT22;54391;50.000;7.360;2023-02-22T02:41:06;6.90;34.30
39401;DHT22;54391;50.000;7.360;2023-02-22T02:43:36;6.90;33.80
39401;DHT22;54391;50.000;7.360;2023-02-22T02:46:05;6.80;33.50
39401;DHT22;54391;50.000;7.360;2023-02-22T02:48:35;6.90;33.00
39401;DHT22;54391;50.000;7.360;2023-02-22T02:51:04;6.70;33.00
39401;DHT22;54391;50.000;7.360;2023-02-22T02:53:33;6.80;32.90
39401;DHT22;54391;50.000;7.360;2023-02-22T02:56:00;6.80;32.90
39401;DHT22;54391;50.000;7.360;2023-02-22T02:58:28;6.80;33.10
39401;DHT22;54391;50.000;7.360;2023-02-22T03:00:56;6.80;33.00
39401;DHT22;54391;50.000;7.360;2023-02-22T03:06:33;7.00;32.10
39401;DHT22;54391;50.000;7.360;2023-02-22T03:09:06;7.10;31.40
39401;DHT22;54391;50.000;7.360;2023-02-22T03:11:40;7.00;31.20
39401;DHT22;54391;50.000;7.360;2023-02-22T03:14:15;7.10;30.50
39401;DHT22;54391;50.000;7.360;2023-02-22T03:16:47;7.20;29.70
39401;DHT22;54391;50.000;7.360;2023-02-22T03:19:17;7.20;29.20
39401;DHT22;54391;50.000;7.360;2023-02-22T03:21:47;7.20;28.80
39401;DHT22;54391;50.000;7.360;2023-02-22T03:24:18;7.20;28.80
39401;DHT22;54391;50.000;7.360;2023-02-22T03:26:48;7.20;28.60
39401;DHT22;54391;50.000;7.360;2023-02-22T03:29:19;7.30;28.30
39401;DHT22;54391;50.000;7.360;2023-02-22T03:31:47;7.20;28.40
39401;DHT22;54391;50.000;7.360;2023-02-22T03:34:21;7.10;29.20
39401;DHT22;54391;50.000;7.360;2023-02-22T03:36:51;7.00;29.50
39401;DHT22;54391;50.000;7.360;2023-02-22T03:39:20;7.00;30.70
39401;DHT22;54391;50.000;7.360;2023-02-22T03:41:55;6.80;31.00
39401;DHT22;54391;50.000;7.360;2023-02-22T03:44:24;6.80;31.60
39401;DHT22;54391;50.000;7.360;2023-02-22T03:46:52;6.80;31.50
39401;DHT22;54391;50.000;7.360;2023-02-22T03:49:23;6.90;30.70
39401;DHT22;54391;50.000;7.360;2023-02-22T03:51:53;6.80;30.60
39401;DHT22;54391;50.000;7.360;2023-02-22T03:54:20;8.20;31.30
39401;DHT22;54391;50.000;7.360;2023-02-22T03:56:48;6.80;30.80
39401;DHT22;54391;50.000;7.360;2023-02-22T03:59:19;6.80;30.90
39401;DHT22;54391;50.000;7.360;2023-02-22T04:01:50;6.80;31.20
39401;DHT22;54391;50.000;7.360;2023-02-22T04:04:17;6.70;31.40
39401;DHT22;54391;50.000;7.360;2023-02-22T04:06:45;6.70;31.60
39401;DHT22;54391;50.000;7.360;2023-02-22T04:09:16;6.60;32.30
39401;DHT22;54391;50.000;7.360;2023-02-22T04:11:43;6.50;32.30
39401;DHT22;54391;50.000;7.360;2023-02-22T04:14:11;6.60;33.20
39401;DHT22;54391;50.000;7.360;2023-02-22T04:16:37;6.50;33.60
39401;DHT22;54391;50.000;7.360;2023-02-22T04:19:07;6.40;34.00
39401;DHT22;54391;50.000;7.360;2023-02-22T04:21:37;6.30;34.00
39401;DHT22;54391;50.000;7.360;2023-02-22T04:24:06;6.20;34.90
39401;DHT22;54391;50.000;7.360;2023-02-22T04:26:35;6.20;35.70
39401;DHT22;54391;50.000;7.360;2023-02-22T04:29:04;6.30;36.00
39401;DHT22;54391;50.000;7.360;2023-02-22T04:31:37;3.00;34.60
39401;DHT22;54391;50.000;7.360;2023-02-22T04:34:04;6.10;36.20
39401;DHT22;54391;50.000;7.360;2023-02-22T04:36:35;9.30;37.90
39401;DHT22;54391;50.000;7.360;2023-02-22T04:39:03;6.20;36.80
39401;DHT22;54391;50.000;7.360;2023-02-22T04:41:30;6.10;36.80
39401;DHT22;54391;50.000;7.360;2023-02-22T04:44:00;6.00;37.30
39401;DHT22;54391;50.000;7.360;2023-02-22T04:46:28;6.00;37.50
39401;DHT22;54391;50.000;7.360;2023-02-22T04:48:55;6.00;38.80
39401;DHT22;54391;50.000;7.360;2023-02-22T04:51:25;5.90;38.80
39401;DHT22;54391;50.000;7.360;2023-02-22T04:54:01;5.90;39.20
39401;DHT22;54391;50.000;7.360;2023-02-22T04:56:30;6.00;38.80
39401;DHT22;54391;50.000;7.360;2023-02-22T04:58:58;6.00;38.90
39401;DHT22;54391;50.000;7.360;2023-02-22T05:01:26;6.00;38.80
39401;DHT22;54391;50.000;7.360;2023-02-22T05:03:56;6.00;38.70
39401;DHT22;54391;50.000;7.360;2023-02-22T05:06:23;6.00;38.60
39401;DHT22;54391;50.000;7.360;2023-02-22T05:08:49;6.10;38.20
39401;DHT22;54391;50.000;7.360;2023-02-22T05:11:17;6.10;38.90
39401;DHT22;54391;50.000;7.360;2023-02-22T05:13:44;6.20;39.00
39401;DHT22;54391;50.000;7.360;2023-02-22T05:16:11;6.10;38.60
39401;DHT22;54391;50.000;7.360;2023-02-22T05:18:40;6.20;38.30
39401;DHT22;54391;50.000;7.360;2023-02-22T05:21:07;6.20;38.30
39401;DHT22;54391;50.000;7.360;2023-02-22T05:23:33;6.20;38.20
39401;DHT22;54391;50.000;7.360;2023-02-22T05:26:00;6.20;37.80
39401;DHT22;54391;50.000;7.360;2023-02-22T05:28:27;6.20;37.60
39401;DHT22;54391;50.000;7.360;2023-02-22T05:30:54;6.20;37.60
39401;DHT22;54391;50.000;7.360;2023-02-22T05:33:21;6.20;37.50
39401;DHT22;54391;50.000;7.360;2023-02-22T05:35:49;6.20;37.00
39401;DHT22;54391;50.000;7.360;2023-02-22T05:38:16;6.20;36.80
39401;DHT22;54391;50.000;7.360;2023-02-22T05:40:43;6.20;36.10
39401;DHT22;54391;50.000;7.360;2023-02-22T05:43:10;6.30;36.80
39401;DHT22;54391;50.000;7.360;2023-02-22T05:45:37;6.30;35.60
39401;DHT22;54391;50.000;7.360;2023-02-22T05:48:04;6.10;35.50
39401;DHT22;54391;50.000;7.360;2023-02-22T05:50:31;6.30;36.00
39401;DHT22;54391;50.000;7.360;2023-02-22T05:53:00;6.20;36.00
39401;DHT22;54391;50.000;7.360;2023-02-22T05:55:27;6.20;36.10
39401;DHT22;54391;50.000;7.360;2023-02-22T05:57:54;6.20;36.00
39401;DHT22;54391;50.000;7.360;2023-02-22T06:00:21;6.20;35.40
39401;DHT22;54391;50.000;7.360;2023-02-22T06:02:52;6.20;35.20
39401;DHT22;54391;50.000;7.360;2023-02-22T06:05:19;6.20;36.00
39401;DHT22;54391;50.000;7.360;2023-02-22T06:07:46;6.20;35.50
39401;DHT22;54391;50.000;7.360;2023-02-22T06:10:14;6.10;35.80
39401;DHT22;54391;50.000;7.360;2023-02-22T06:12:41;6.10;36.00
39401;DHT22;54391;50.000;7.360;2023-02-22T06:15:08;6.00;36.00
39401;DHT22;54391;50.000;7.360;2023-02-22T06:17:36;6.10;36.00
39401;DHT22;54391;50.000;7.360;2023-02-22T06:20:04;6.20;36.10
39401;DHT22;54391;50.000;7.360;2023-02-22T06:22:32;6.10;36.80
39401;DHT22;54391;50.000;7.360;2023-02-22T06:25:01;5.90;36.40
39401;DHT22;54391;50.000;7.360;2023-02-22T06:27:31;5.90;36.90
39401;DHT22;54391;50.000;7.360;2023-02-22T06:29:58;5.90;36.90
39401;DHT22;54391;50.000;7.360;2023-02-22T06:32:25;5.90;36.40
39401;DHT22;54391;50.000;7.360;2023-02-22T06:34:52;5.90;36.00
39401;DHT22;54391;50.000;7.360;2023-02-22T06:37:19;5.90;35.90
39401;DHT22;54391;50.000;7.360;2023-02-22T06:39:46;5.90;36.40
39401;DHT22;54391;50.000;7.360;2023-02-22T06:42:13;5.90;36.70
39401;DHT22;54391;50.000;7.360;2023-02-22T06:44:42;5.80;36.20
39401;DHT22;54391;50.000;7.360;2023-02-22T06:47:09;5.80;36.10
39401;DHT22;54391;50.000;7.360;2023-02-22T06:49:36;5.80;36.90
39401;DHT22;54391;50.000;7.360;2023-02-22T06:52:03;5.90;37.90
39401;DHT22;54391;50.000;7.360;2023-02-22T06:54:30;5.90;36.70
39401;DHT22;54391;50.000;7.360;2023-02-22T06:56:57;5.90;35.90
39401;DHT22;54391;50.000;7.360;2023-02-22T06:59:24;5.80;35.40
39401;DHT22;54391;50.000;7.360;2023-02-22T07:01:53;5.80;36.60
39401;DHT22;54391;50.000;7.360;2023-02-22T07:04:20;5.60;35.70
39401;DHT22;54391;50.000;7.360;2023-02-22T07:06:48;5.90;37.30
39401;DHT22;54391;50.000;7.360;2023-02-22T07:09:17;6.00;36.80
39401;DHT22;54391;50.000;7.360;2023-02-22T07:11:44;6.00;36.50
39401;DHT22;54391;50.000;7.360;2023-02-22T07:14:11;6.20;36.90
39401;DHT22;54391;50.000;7.360;2023-02-22T07:16:38;6.30;33.90
39401;DHT22;54391;50.000;7.360;2023-02-22T07:19:06;6.50;33.90
39401;DHT22;54391;50.000;7.360;2023-02-22T07:21:33;6.40;33.40
39401;DHT22;54391;50.000;7.360;2023-02-22T07:24:00;6.60;33.10
39401;DHT22;54391;50.000;7.360;2023-02-22T07:26:27;7.00;30.90
39401;DHT22;54391;50.000;7.360;2023-02-22T07:28:54;7.30;28.70
39401;DHT22;54391;50.000;7.360;2023-02-22T07:31:20;7.30;28.80
39401;DHT22;54391;50.000;7.360;2023-02-22T07:33:48;7.50;27.00
39401;DHT22;54391;50.000;7.360;2023-02-22T07:36:17;7.50;26.20
39401;DHT22;54391;50.000;7.360;2023-02-22T07:38:44;7.50;26.20
39401;DHT22;54391;50.000;7.360;2023-02-22T07:41:11;7.40;25.80
39401;DHT22;54391;50.000;7.360;2023-02-22T07:43:38;7.20;26.80
39401;DHT22;54391;50.000;7.360;2023-02-22T07:46:05;7.10;27.00
39401;DHT22;54391;50.000;7.360;2023-02-22T07:48:31;7.40;27.00
39401;DHT22;54391;50.000;7.360;2023-02-22T07:50:58;7.40;27.00
39401;DHT22;54391;50.000;7.360;2023-02-22T07:53:27;7.60;26.10
39401;DHT22;54391;50.000;7.360;2023-02-22T07:55:55;7.80;25.20
39401;DHT22;54391;50.000;7.360;2023-02-22T07:58:23;7.80;23.90
39401;DHT22;54391;50.000;7.360;2023-02-22T08:00:50;7.80;24.00
39401;DHT22;54391;50.000;7.360;2023-02-22T08:03:18;7.80;23.20
39401;DHT22;54391;50.000;7.360;2023-02-22T08:05:45;7.70;22.60
39401;DHT22;54391;50.000;7.360;2023-02-22T08:08:13;7.90;23.50
39401;DHT22;54391;50.000;7.360;2023-02-22T08:10:42;7.80;22.40
39401;DHT22;54391;50.000;7.360;2023-02-22T08:13:09;8.00;21.60
39401;DHT22;54391;50.000;7.360;2023-02-22T08:15:37;7.90;22.40
39401;DHT22;54391;50.000;7.360;2023-02-22T08:18:05;7.90;23.30
39401;DHT22;54391;50.000;7.360;2023-02-22T08:20:33;8.40;20.90
39401;DHT22;54391;50.000;7.360;2023-02-22T08:23:00;8.60;21.00
39401;DHT22;54391;50.000;7.360;2023-02-22T08:25:28;8.90;18.70
39401;DHT22;54391;50.000;7.360;2023-02-22T08:27:57;12.90;16.80
39401;DHT22;54391;50.000;7.360;2023-02-22T08:30:28;10.20;13.60
39401;DHT22;54391;50.000;7.360;2023-02-22T08:32:55;10.10;12.70
39401;DHT22;54391;50.000;7.360;2023-02-22T08:35:22;10.60;13.70
39401;DHT22;54391;50.000;7.360;2023-02-22T08:37:51;11.10;11.60
39401;DHT22;54391;50.000;7.360;2023-02-22T08:40:19;11.30;8.90
39401;DHT22;54391;50.000;7.360;2023-02-22T08:42:46;11.60;9.30
39401;DHT22;54391;50.000;7.360;2023-02-22T08:45:14;11.00;11.40
39401;DHT22;54391;50.000;7.360;2023-02-22T08:47:42;9.70;16.30
39401;DHT22;54391;50.000;7.360;2023-02-22T08:50:13;9.40;18.40
39401;DHT22;54391;50.000;7.360;2023-02-22T08:52:41;9.30;19.30
39401;DHT22;54391;50.000;7.360;2023-02-22T08:55:08;9.20;20.00
39401;DHT22;54391;50.000;7.360;2023-02-22T09:00:29;9.20;21.20
39401;DHT22;54391;50.000;7.360;2023-02-22T09:02:57;9.50;17.60
39401;DHT22;54391;50.000;7.360;2023-02-22T09:05:24;9.90;16.70
39401;DHT22;54391;50.000;7.360;2023-02-22T09:07:51;10.00;15.60
39401;DHT22;54391;50.000;7.360;2023-02-22T09:10:20;10.00;13.50
39401;DHT22;54391;50.000;7.360;2023-02-22T09:12:49;10.40;13.70
39401;DHT22;54391;50.000;7.360;2023-02-22T09:15:16;10.40;12.60
39401;DHT22;54391;50.000;7.360;2023-02-22T09:17:44;11.00;12.00
39401;DHT22;54391;50.000;7.360;2023-02-22T09:20:11;11.10;11.30
39401;DHT22;54391;50.000;7.360;2023-02-22T09:22:38;11.50;9.50
39401;DHT22;54391;50.000;7.360;2023-02-22T09:25:06;11.90;9.30
39401;DHT22;54391;50.000;7.360;2023-02-22T09:27:33;11.80;9.10
39401;DHT22;54391;50.000;7.360;2023-02-22T09:30:00;11.90;8.40
39401;DHT22;54391;50.000;7.360;2023-02-22T09:32:29;11.50;8.60
39401;DHT22;54391;50.000;7.360;2023-02-22T09:34:57;11.60;8.10
39401;DHT22;54391;50.000;7.360;2023-02-22T09:37:24;11.40;8.90
39401;DHT22;54391;50.000;7.360;2023-02-22T09:39:51;11.60;7.90
39401;DHT22;54391;50.000;7.360;2023-02-22T09:42:20;11.90;6.70
39401;DHT22;54391;50.000;7.360;2023-02-22T09:44:49;12.10;6.90
39401;DHT22;54391;50.000;7.360;2023-02-22T09:47:19;12.50;6.80
39401;DHT22;54391;50.000;7.360;2023-02-22T09:49:51;13.00;4.00
39401;DHT22;54391;50.000;7.360;2023-02-22T09:52:24;13.20;2.60
39401;DHT22;54391;50.000;7.360;2023-02-22T09:54:53;12.40;4.80
39401;DHT22;54391;50.000;7.360;2023-02-22T09:57:24;12.20;6.80
39401;DHT22;54391;50.000;7.360;2023-02-22T09:59:56;11.80;7.30
39401;DHT22;54391;50.000;7.360;2023-02-22T10:02:25;11.70;7.30
39401;DHT22;54391;50.000;7.360;2023-02-22T10:04:55;11.80;7.10
39401;DHT22;54391;50.000;7.360;2023-02-22T10:07:27;12.00;5.40
39401;DHT22;54391;50.000;7.360;2023-02-22T10:09:54;11.50;6.40
39401;DHT22;54391;50.000;7.360;2023-02-22T10:12:24;11.60;6.40
39401;DHT22;54391;50.000;7.360;2023-02-22T10:17:38;11.40;7.80
39401;DHT22;54391;50.000;7.360;2023-02-22T10:20:10;11.00;8.80
39401;DHT22;54391;50.000;7.360;2023-02-22T10:25:30;11.20;9.30
39401;DHT22;54391;50.000;7.360;2023-02-22T10:28:00;11.90;8.50
39401;DHT22;54391;50.000;7.360;2023-02-22T10:30:29;12.10;6.60
39401;DHT22;54391;50.000;7.360;2023-02-22T10:32:57;12.10;7.20
39401;DHT22;54391;50.000;7.360;2023-02-22T10:35:29;12.30;6.30
39401;DHT22;54391;50.000;7.360;2023-02-22T10:37:58;12.60;6.20
39401;DHT22;54391;50.000;7.360;2023-02-22T10:40:27;12.80;5.30
39401;DHT22;54391;50.000;7.360;2023-02-22T10:43:02;12.20;5.70
39401;DHT22;54391;50.000;7.360;2023-02-22T10:45:30;12.20;7.20
39401;DHT22;54391;50.000;7.360;2023-02-22T10:47:58;12.70;6.90
39401;DHT22;54391;50.000;7.360;2023-02-22T10:50:27;13.20;5.50
39401;DHT22;54391;50.000;7.360;2023-02-22T10:52:55;14.20;5.10
39401;DHT22;54391;50.000;7.360;2023-02-22T10:55:22;13.80;2.70
39401;DHT22;54391;50.000;7.360;2023-02-22T10:57:49;13.60;3.80
39401;DHT22;54391;50.000;7.360;2023-02-22T11:00:19;14.10;2.30
39401;DHT22;54391;50.000;7.360;2023-02-22T11:02:51;14.60;1.60
39401;DHT22;54391;50.000;7.360;2023-02-22T11:05:33;14.80;1.00
39401;DHT22;54391;50.000;7.360;2023-02-22T11:08:15;14.70;1.00
39401;DHT22;54391;50.000;7.360;2023-02-22T11:10:42;15.30;1.00
39401;DHT22;54391;50.000;7.360;2023-02-22T11:13:15;15.30;1.00
39401;DHT22;54391;50.000;7.360;2023-02-22T11:15:43;14.50;1.00
39401;DHT22;54391;50.000;7.360;2023-02-22T11:18:20;15.20;1.00
39401;DHT22;54391;50.000;7.360;2023-02-22T11:20:48;15.00;1.00
39401;DHT22;54391;50.000;7.360;2023-02-22T11:23:18;14.70;1.90
39401;DHT22;54391;50.000;7.360;2023-02-22T11:25:47;13.80;2.20
39401;DHT22;54391;50.000;7.360;2023-02-22T11:28:17;13.40;4.10
39401;DHT22;54391;50.000;7.360;2023-02-22T11:30:56;13.30;5.20
39401;DHT22;54391;50.000;7.360;2023-02-22T11:33:27;13.50;5.50
39401;DHT22;54391;50.000;7.360;2023-02-22T11:35:55;11.80;4.70
39401;DHT22;54391;50.000;7.360;2023-02-22T11:38:23;13.30;6.40
39401;DHT22;54391;50.000;7.360;2023-02-22T11:41:04;13.30;7.00
39401;DHT22;54391;50.000;7.360;2023-02-22T11:43:32;13.60;6.50
39401;DHT22;54391;50.000;7.360;2023-02-22T11:46:01;14.00;5.90
39401;DHT22;54391;50.000;7.360;2023-02-22T11:48:30;13.60;5.40
39401;DHT22;54391;50.000;7.360;2023-02-22T11:51:05;13.60;5.30
39401;DHT22;54391;50.000;7.360;2023-02-22T11:53:41;13.70;5.80
39401;DHT22;54391;50.000;7.360;2023-02-22T11:56:12;13.20;7.80
39401;DHT22;54391;50.000;7.360;2023-02-22T11:58:41;13.70;6.70
39401;DHT22;54391;50.000;7.360;2023-02-22T12:01:14;13.70;6.40
39401;DHT22;54391;50.000;7.360;2023-02-22T12:03:46;13.40;6.40
39401;DHT22;54391;50.000;7.360;2023-02-22T12:06:20;13.70;7.30
39401;DHT22;54391;50.000;7.360;2023-02-22T12:08:52;13.60;6.20
39401;DHT22;54391;50.000;7.360;2023-02-22T12:11:25;13.60;6.90
39401;DHT22;54391;50.000;7.360;2023-02-22T12:14:00;13.40;7.70
39401;DHT22;54391;50.000;7.360;2023-02-22T12:16:36;13.20;7.60
39401;DHT22;54391;50.000;7.360;2023-02-22T12:19:10;12.90;9.30
39401;DHT22;54391;50.000;7.360;2023-02-22T12:21:40;12.80;9.00
39401;DHT22;54391;50.000;7.360;2023-02-22T12:24:09;12.80;9.10
39401;DHT22;54391;50.000;7.360;2023-02-22T12:26:39;13.00;9.00
39401;DHT22;54391;50.000;7.360;2023-02-22T12:29:08;13.30;8.10
39401;DHT22;54391;50.000;7.360;2023-02-22T12:31:40;13.20;8.10
39401;DHT22;54391;50.000;7.360;2023-02-22T12:34:12;13.40;8.70
39401;DHT22;54391;50.000;7.360;2023-02-22T12:36:42;13.60;7.60
39401;DHT22;54391;50.000;7.360;2023-02-22T12:39:22;13.00;8.50
39401;DHT22;54391;50.000;7.360;2023-02-22T12:41:50;13.10;8.60
39401;DHT22;54391;50.000;7.360;2023-02-22T12:44:20;12.90;8.60
39401;DHT22;54391;50.000;7.360;2023-02-22T12:46:50;12.90;9.30
39401;DHT22;54391;50.000;7.360;2023-02-22T12:49:20;12.80;9.50
39401;DHT22;54391;50.000;7.360;2023-02-22T12:51:53;12.80;9.30
39401;DHT22;54391;50.000;7.360;2023-02-22T12:54:22;12.90;10.30
39401;DHT22;54391;50.000;7.360;2023-02-22T12:56:52;13.00;9.10
39401;DHT22;54391;50.000;7.360;2023-02-22T12:59:22;12.80;8.60
39401;DHT22;54391;50.000;7.360;2023-02-22T13:01:53;12.60;9.00
39401;DHT22;54391;50.000;7.360;2023-02-22T13:04:22;12.70;10.40
39401;DHT22;54391;50.000;7.360;2023-02-22T13:07:02;12.80;10.00
39401;DHT22;54391;50.000;7.360;2023-02-22T13:09:34;13.00;9.20
39401;DHT22;54391;50.000;7.360;2023-02-22T13:12:04;12.90;10.70
39401;DHT22;54391;50.000;7.360;2023-02-22T13:14:36;12.80;10.10
39401;DHT22;54391;50.000;7.360;2023-02-22T13:17:08;12.70;9.80
39401;DHT22;54391;50.000;7.360;2023-02-22T13:19:41;12.90;10.10
39401;DHT22;54391;50.000;7.360;2023-02-22T13:22:12;12.80;9.90
39401;DHT22;54391;50.000;7.360;2023-02-22T13:24:45;12.80;10.60
39401;DHT22;54391;50.000;7.360;2023-02-22T13:27:15;12.90;10.40
39401;DHT22;54391;50.000;7.360;2023-02-22T13:29:46;13.10;9.60
39401;DHT22;54391;50.000;7.360;2023-02-22T13:32:22;12.50;9.40
39401;DHT22;54391;50.000;7.360;2023-02-22T13:34:59;13.10;8.80
39401;DHT22;54391;50.000;7.360;2023-02-22T13:40:33;13.10;9.50
39401;DHT22;54391;50.000;7.360;2023-02-22T13:43:07;12.80;9.00
39401;DHT22;54391;50.000;7.360;2023-02-22T13:45:40;12.70;10.20
39401;DHT22;54391;50.000;7.360;2023-02-22T13:48:21;12.80;10.40
39401;DHT22;54391;50.000;7.360;2023-02-22T13:50:58;13.00;9.80
39401;DHT22;54391;50.000;7.360;2023-02-22T13:53:31;12.80;9.90
39401;DHT22;54391;50.000;7.360;2023-02-22T13:56:01;13.00;10.40
39401;DHT22;54391;50.000;7.360;2023-02-22T13:58:28;13.20;10.30
39401;DHT22;54391;50.000;7.360;2023-02-22T14:00:55;13.20;10.30
39401;DHT22;54391;50.000;7.360;2023-02-22T14:03:37;13.10;9.50
39401;DHT22;54391;50.000;7.360;2023-02-22T14:06:10;13.10;9.70
39401;DHT22;54391;50.000;7.360;2023-02-22T14:08:57;12.90;9.40
39401;DHT22;54391;50.000;7.360;2023-02-22T14:14:21;13.10;9.40
39401;DHT22;54391;50.000;7.360;2023-02-22T14:19:35;13.20;9.90
39401;DHT22;54391;50.000;7.360;2023-02-22T14:22:03;11.30;9.50
39401;DHT22;54391;50.000;7.360;2023-02-22T14:24:39;13.30;10.60
39401;DHT22;54391;50.000;7.360;2023-02-22T14:27:07;13.20;9.30
39401;DHT22;54391;50.000;7.360;2023-02-22T14:29:34;12.90;9.80
39401;DHT22;54391;50.000;7.360;2023-02-22T14:32:03;12.90;10.10
39401;DHT22;54391;50.000;7.360;2023-02-22T14:34:41;12.90;10.90
39401;DHT22;54391;50.000;7.360;2023-02-22T14:37:11;12.90;10.00
39401;DHT22;54391;50.000;7.360;2023-02-22T14:39:38;12.80;10.00
39401;DHT22;54391;50.000;7.360;2023-02-22T14:42:09;12.70;10.10
39401;DHT22;54391;50.000;7.360;2023-02-22T14:44:39;12.60;10.50
39401;DHT22;54391;50.000;7.360;2023-02-22T14:47:08;12.60;10.60
39401;DHT22;54391;50.000;7.360;2023-02-22T14:49:42;12.60;11.80
39401;DHT22;54391;50.000;7.360;2023-02-22T14:52:14;12.60;11.90
39401;DHT22;54391;50.000;7.360;2023-02-22T14:54:58;12.50;11.60
39401;DHT22;54391;50.000;7.360;2023-02-22T14:57:29;12.50;12.10
39401;DHT22;54391;50.000;7.360;2023-02-22T15:00:05;12.30;11.70
39401;DHT22;54391;50.000;7.360;2023-02-22T15:02:44;12.20;11.70
39401;DHT22;54391;50.000;7.360;2023-02-22T15:05:13;12.00;12.10
39401;DHT22;54391;50.000;7.360;2023-02-22T15:07:49;12.00;12.80
39401;DHT22;54391;50.000;7.360;2023-02-22T15:10:18;11.90;13.20
39401;DHT22;54391;50.000;7.360;2023-02-22T15:12:52;12.00;13.30
39401;DHT22;54391;50.000;7.360;2023-02-22T15:15:33;12.00;13.40
39401;DHT22;54391;50.000;7.360;2023-02-22T15:18:02;11.90;13.50
39401;DHT22;54391;50.000;7.360;2023-02-22T15:20:33;11.90;13.90
39401;DHT22;54391;50.000;7.360;2023-02-22T15:23:01;11.90;13.80
39401;DHT22;54391;50.000;7.360;2023-02-22T15:25:28;11.90;13.70
39401;DHT22;54391;50.000;7.360;2023-02-22T15:27:59;11.90;14.00
39401;DHT22;54391;50.000;7.360;2023-02-22T15:30:27;11.90;13.60
39401;DHT22;54391;50.000;7.360;2023-02-22T15:33:08;11.80;13.90
39401;DHT22;54391;50.000;7.360;2023-02-22T15:35:36;11.70;14.30
39401;DHT22;54391;50.000;7.360;2023-02-22T15:38:04;11.80;14.20
39401;DHT22;54391;50.000;7.360;2023-02-22T15:40:31;11.90;14.10
39401;DHT22;54391;50.000;7.360;2023-02-22T15:42:59;12.00;13.80
39401;DHT22;54391;50.000;7.360;2023-02-22T15:45:26;11.90;14.20
39401;DHT22;54391;50.000;7.360;2023-02-22T15:47:54;11.90;14.30
39401;DHT22;54391;50.000;7.360;2023-02-22T15:50:23;11.80;14.20
39401;DHT22;54391;50.000;7.360;2023-02-22T15:52:54;11.70;14.40
39401;DHT22;54391;50.000;7.360;2023-02-22T15:55:24;11.70;14.90
39401;DHT22;54391;50.000;7.360;2023-02-22T15:57:51;11.80;14.50
39401;DHT22;54391;50.000;7.360;2023-02-22T16:00:19;11.70;14.70
39401;DHT22;54391;50.000;7.360;2023-02-22T16:02:47;11.60;15.10
39401;DHT22;54391;50.000;7.360;2023-02-22T16:05:15;11.60;15.40
39401;DHT22;54391;50.000;7.360;2023-02-22T16:07:44;11.50;15.70
39401;DHT22;54391;50.000;7.360;2023-02-22T16:10:20;11.50;16.20
39401;DHT22;54391;50.000;7.360;2023-02-22T16:12:48;11.40;16.40
39401;DHT22;54391;50.000;7.360;2023-02-22T16:15:15;11.20;17.30
39401;DHT22;54391;50.000;7.360;2023-02-22T16:17:42;11.10;17.50
39401;DHT22;54391;50.000;7.360;2023-02-22T16:20:29;11.20;18.20